sensor_id;sensor_type;location;lat;lon;timestamp;temperature;humidity
1546;DHT22;766;51.502;9.752;2024-02-23T00:01:52;7.50;99.90
1546;DHT22;766;51.502;9.752;2024-02-23T00:04:24;7.50;99.90
1546;DHT22;766;51.502;9.752;2024-02-23T00:06:52;7.40;99.90
1546;DHT22;766;51.502;9.752;2024-02-23T00:09:21;7.50;99.90
1546;DHT22;766;51.502;9.752;2024-02-23T00:11:51;7.40;99.90
1546;DHT22;766;51.502;9.752;2024-02-23T00:14:20;7.40;99.90
1546;DHT22;766;51.502;9.752;2024-02-23T00:16:49;7.40;99.90
1546;DHT22;766;51.502;9.752;2024-02-23T00:19:17;7.50;99.90
1546;DHT22;766;51.502;9.752;2024-02-23T00:21:47;7.50;99.90
1546;DHT22;766;51.502;9.752;2024-02-23T00:24:17;7.40;99.90
1546;DHT22;766;51.502;9.752;2024-02-23T00:26:48;7.40;99.90
1546;DHT22;766;51.502;9.752;2024-02-23T00:29:22;7.40;99.90
1546;DHT22;766;51.502;9.752;2024-02-23T00:31:57;7.40;99.90
1546;DHT22;766;51.502;9.752;2024-02-23T00:34:26;7.30;99.90
1546;DHT22;766;51.502;9.752;2024-02-23T00:36:54;7.30;99.90
1546;DHT22;766;51.502;9.752;2024-02-23T00:39:23;7.20;99.90
1546;DHT22;766;51.502;9.752;2024-02-23T00:41:51;7.20;99.90
1546;DHT22;766;51.502;9.752;2024-02-23T00:44:19;7.20;99.90
1546;DHT22;766;51.502;9.752;2024-02-23T00:46:50;7.30;99.90
1546;DHT22;766;51.502;9.752;2024-02-23T00:49:18;7.40;99.90
1546;DHT22;766;51.502;9.752;2024-02-23T00:51:47;7.40;99.90
1546;DHT22;766;51.502;9.752;2024-02-23T00:54:15;7.30;99.90
1546;DHT22;766;51.502;9.752;2024-02-23T00:56:43;7.30;99.90
1546;DHT22;766;51.502;9.752;2024-02-23T00:59:18;7.20;99.90
1546;DHT22;766;51.502;9.752;2024-02-23T01:01:50;7.10;99.90
1546;DHT22;766;51.502;9.752;2024-02-23T01:04:19;7.00;99.90
1546;DHT22;766;51.502;9.752;2024-02-23T01:06:50;6.80;99.90
1546;DHT22;766;51.502;9.752;2024-02-23T01:09:19;6.70;99.90
1546;DHT22;766;51.502;9.752;2024-02-23T01:11:50;6.60;99.90
1546;DHT22;766;51.502;9.752;2024-02-23T01:14:18;6.60;99.90
1546;DHT22;766;51.502;9.752;2024-02-23T01:16:51;6.60;99.90
1546;DHT22;766;51.502;9.752;2024-02-23T01:19:19;6.60;99.90
1546;DHT22;766;51.502;9.752;2024-02-23T01:21:48;6.60;99.90
1546;DHT22;766;51.502;9.752;2024-02-23T01:24:23;6.50;99.90
1546;DHT22;766;51.502;9.752;2024-02-23T01:26:53;6.40;99.90
1546;DHT22;766;51.502;9.752;2024-02-23T01:29:24;6.40;99.90
1546;DHT22;766;51.502;9.752;2024-02-23T01:31:55;6.40;99.90
1546;DHT22;766;51.502;9.752;2024-02-23T01:34:24;6.40;99.90
1546;DHT22;766;51.502;9.752;2024-02-23T01:36:53;6.40;99.90
1546;DHT22;766;51.502;9.752;2024-02-23T01:39:22;6.40;99.90
1546;DHT22;766;51.502;9.752;2024-02-23T01:41:51;6.40;99.90
1546;DHT22;766;51.502;9.752;2024-02-23T01:44:20;6.40;99.90
1546;DHT22;766;51.502;9.752;2024-02-23T01:46:49;6.40;99.90
1546;DHT22;766;51.502;9.752;2024-02-23T01:49:20;6.30;99.90
1546;DHT22;766;51.502;9.752;2024-02-23T01:51:57;6.30;99.90
1546;DHT22;766;51.502;9.752;2024-02-23T01:54:26;6.30;99.90
1546;DHT22;766;51.502;9.752;2024-02-23T01:56:57;6.30;99.90
1546;DHT22;766;51.502;9.752;2024-02-23T01:59:46;6.30;99.90
1546;DHT22;766;51.502;9.752;2024-02-23T02:02:15;6.30;99.90
1546;DHT22;766;51.502;9.752;2024-02-23T02:04:46;6.30;99.90
1546;DHT22;766;51.502;9.752;2024-02-23T02:07:16;6.30;99.90
1546;DHT22;766;51.502;9.752;2024-02-23T02:09:49;6.30;99.90
1546;DHT22;766;51.502;9.752;2024-02-23T02:12:26;6.30;99.90
1546;DHT22;766;51.502;9.752;2024-02-23T02:14:55;6.30;99.90
1546;DHT22;766;51.502;9.752;2024-02-23T02:17:24;6.30;99.90
1546;DHT22;766;51.502;9.752;2024-02-23T02:19:55;6.30;99.90
1546;DHT22;766;51.502;9.752;2024-02-23T02:22:26;6.30;99.90
1546;DHT22;766;51.502;9.752;2024-02-23T02:24:54;6.40;99.90
1546;DHT22;766;51.502;9.752;2024-02-23T02:27:23;6.40;99.90
1546;DHT22;766;51.502;9.752;2024-02-23T02:29:52;6.40;99.90
1546;DHT22;766;51.502;9.752;2024-02-23T02:32:21;6.40;99.90
1546;DHT22;766;51.502;9.752;2024-02-23T02:34:50;6.30;99.90
1546;DHT22;766;51.502;9.752;2024-02-23T02:37:21;6.30;99.90
1546;DHT22;766;51.502;9.752;2024-02-23T02:39:50;6.20;99.90
1546;DHT22;766;51.502;9.752;2024-02-23T02:42:19;6.10;99.90
1546;DHT22;766;51.502;9.752;2024-02-23T02:44:48;6.10;99.90
1546;DHT22;766;51.502;9.752;2024-02-23T02:47:17;6.00;99.90
1546;DHT22;766;51.502;9.752;2024-02-23T02:49:46;6.00;99.90
1546;DHT22;766;51.502;9.752;2024-02-23T02:52:15;6.00;99.90
1546;DHT22;766;51.502;9.752;2024-02-23T02:54:46;6.00;99.90
1546;DHT22;766;51.502;9.752;2024-02-23T02:57:16;6.00;99.90
1546;DHT22;766;51.502;9.752;2024-02-23T02:59:45;6.00;99.90
1546;DHT22;766;51.502;9.752;2024-02-23T03:02:15;5.90;99.90
1546;DHT22;766;51.502;9.752;2024-02-23T03:04:47;5.90;99.90
1546;DHT22;766;51.502;9.752;2024-02-23T03:07:16;5.90;99.90
1546;DHT22;766;51.502;9.752;2024-02-23T03:09:47;5.90;99.90
1546;DHT22;766;51.502;9.752;2024-02-23T03:12:17;5.90;99.90
1546;DHT22;766;51.502;9.752;2024-02-23T03:14:46;5.90;99.90
1546;DHT22;766;51.502;9.752;2024-02-23T03:17:15;5.90;99.90
1546;DHT22;766;51.502;9.752;2024-02-23T03:19:44;5.90;99.90
1546;DHT22;766;51.502;9.752;2024-02-23T03:22:13;5.90;99.90
1546;DHT22;766;51.502;9.752;2024-02-23T03:24:42;5.90;99.90
1546;DHT22;766;51.502;9.752;2024-02-23T03:27:12;5.90;99.90
1546;DHT22;766;51.502;9.752;2024-02-23T03:29:42;5.90;99.90
1546;DHT22;766;51.502;9.752;2024-02-23T03:32:11;5.90;99.90
1546;DHT22;766;51.502;9.752;2024-02-23T03:34:41;5.90;99.90
1546;DHT22;766;51.502;9.752;2024-02-23T03:37:10;5.80;99.90
1546;DHT22;766;51.502;9.752;2024-02-23T03:39:39;5.70;99.90
1546;DHT22;766;51.502;9.752;2024-02-23T03:42:07;5.60;99.90
1546;DHT22;766;51.502;9.752;2024-02-23T03:44:37;5.50;99.90
1546;DHT22;766;51.502;9.752;2024-02-23T03:47:06;5.30;99.90
1546;DHT22;766;51.502;9.752;2024-02-23T03:49:34;5.20;99.90
1546;DHT22;766;51.502;9.752;2024-02-23T03:52:04;5.20;99.90
1546;DHT22;766;51.502;9.752;2024-02-23T03:54:33;5.10;99.90
1546;DHT22;766;51.502;9.752;2024-02-23T03:57:01;5.00;99.90
1546;DHT22;766;51.502;9.752;2024-02-23T03:59:30;4.90;99.90
1546;DHT22;766;51.502;9.752;2024-02-23T04:02:00;5.00;99.90
1546;DHT22;766;51.502;9.752;2024-02-23T04:04:29;5.00;99.90
1546;DHT22;766;51.502;9.752;2024-02-23T04:06:57;4.90;99.90
1546;DHT22;766;51.502;9.752;2024-02-23T04:09:26;4.90;99.90
1546;DHT22;766;51.502;9.752;2024-02-23T04:11:55;4.90;99.90
1546;DHT22;766;51.502;9.752;2024-02-23T04:14:23;4.90;99.90
1546;DHT22;766;51.502;9.752;2024-02-23T04:16:52;4.80;99.90
1546;DHT22;766;51.502;9.752;2024-02-23T04:19:22;4.80;99.90
1546;DHT22;766;51.502;9.752;2024-02-23T04:21:51;4.80;99.90
1546;DHT22;766;51.502;9.752;2024-02-23T04:24:19;4.80;99.90
1546;DHT22;766;51.502;9.752;2024-02-23T04:26:51;4.80;99.90
1546;DHT22;766;51.502;9.752;2024-02-23T04:29:20;4.80;99.90
1546;DHT22;766;51.502;9.752;2024-02-23T04:31:49;4.80;99.90
1546;DHT22;766;51.502;9.752;2024-02-23T04:34:17;4.90;99.90
1546;DHT22;766;51.502;9.752;2024-02-23T04:36:50;4.90;99.90
1546;DHT22;766;51.502;9.752;2024-02-23T04:39:18;4.90;99.90
1546;DHT22;766;51.502;9.752;2024-02-23T04:41:47;4.90;99.90
1546;DHT22;766;51.502;9.752;2024-02-23T04:44:16;4.90;99.90
1546;DHT22;766;51.502;9.752;2024-02-23T04:46:44;4.90;99.90
1546;DHT22;766;51.502;9.752;2024-02-23T04:49:13;4.90;99.90
1546;DHT22;766;51.502;9.752;2024-02-23T04:51:41;4.80;99.90
1546;DHT22;766;51.502;9.752;2024-02-23T04:54:15;4.90;99.90
1546;DHT22;766;51.502;9.752;2024-02-23T04:56:44;4.90;99.90
1546;DHT22;766;51.502;9.752;2024-02-23T04:59:12;4.80;99.90
1546;DHT22;766;51.502;9.752;2024-02-23T05:01:42;4.90;99.90
1546;DHT22;766;51.502;9.752;2024-02-23T05:04:11;4.90;99.90
1546;DHT22;766;51.502;9.752;2024-02-23T05:06:39;4.90;99.90
1546;DHT22;766;51.502;9.752;2024-02-23T05:09:10;4.80;99.90
1546;DHT22;766;51.502;9.752;2024-02-23T05:11:39;4.80;99.90
1546;DHT22;766;51.502;9.752;2024-02-23T05:14:08;4.80;99.90
1546;DHT22;766;51.502;9.752;2024-02-23T05:16:37;4.70;99.90
1546;DHT22;766;51.502;9.752;2024-02-23T05:19:05;4.60;99.90
1546;DHT22;766;51.502;9.752;2024-02-23T05:21:34;4.70;99.90
1546;DHT22;766;51.502;9.752;2024-02-23T05:24:03;4.70;99.90
1546;DHT22;766;51.502;9.752;2024-02-23T05:26:33;4.70;99.90
1546;DHT22;766;51.502;9.752;2024-02-23T05:29:03;4.70;99.90
1546;DHT22;766;51.502;9.752;2024-02-23T05:31:50;4.70;99.90
1546;DHT22;766;51.502;9.752;2024-02-23T05:34:20;4.70;99.90
1546;DHT22;766;51.502;9.752;2024-02-23T05:36:49;4.60;99.90
1546;DHT22;766;51.502;9.752;2024-02-23T05:39:20;4.60;99.90
1546;DHT22;766;51.502;9.752;2024-02-23T05:41:49;4.60;99.90
1546;DHT22;766;51.502;9.752;2024-02-23T05:44:19;4.60;99.90
1546;DHT22;766;51.502;9.752;2024-02-23T05:46:49;4.60;99.90
1546;DHT22;766;51.502;9.752;2024-02-23T05:49:18;4.60;99.90
1546;DHT22;766;51.502;9.752;2024-02-23T05:51:47;4.60;99.90
1546;DHT22;766;51.502;9.752;2024-02-23T05:54:15;4.60;99.90
1546;DHT22;766;51.502;9.752;2024-02-23T05:56:44;4.60;99.90
1546;DHT22;766;51.502;9.752;2024-02-23T05:59:13;4.60;99.90
1546;DHT22;766;51.502;9.752;2024-02-23T06:01:43;4.60;99.90
1546;DHT22;766;51.502;9.752;2024-02-23T06:04:12;4.70;99.90
1546;DHT22;766;51.502;9.752;2024-02-23T06:06:41;4.70;99.90
1546;DHT22;766;51.502;9.752;2024-02-23T06:09:11;4.70;99.90
1546;DHT22;766;51.502;9.752;2024-02-23T06:11:43;4.70;99.90
1546;DHT22;766;51.502;9.752;2024-02-23T06:14:15;4.60;99.90
1546;DHT22;766;51.502;9.752;2024-02-23T06:16:45;4.60;99.90
1546;DHT22;766;51.502;9.752;2024-02-23T06:19:14;4.50;99.90
1546;DHT22;766;51.502;9.752;2024-02-23T06:21:42;4.50;99.90
1546;DHT22;766;51.502;9.752;2024-02-23T06:24:12;4.50;99.90
1546;DHT22;766;51.502;9.752;2024-02-23T06:26:41;4.50;99.90
1546;DHT22;766;51.502;9.752;2024-02-23T06:29:10;4.40;99.90
1546;DHT22;766;51.502;9.752;2024-02-23T06:31:40;4.40;99.90
1546;DHT22;766;51.502;9.752;2024-02-23T06:34:11;4.40;99.90
1546;DHT22;766;51.502;9.752;2024-02-23T06:36:40;4.40;99.90
1546;DHT22;766;51.502;9.752;2024-02-23T06:39:09;4.40;99.90
1546;DHT22;766;51.502;9.752;2024-02-23T06:41:38;4.40;99.90
1546;DHT22;766;51.502;9.752;2024-02-23T06:44:07;4.40;99.90
1546;DHT22;766;51.502;9.752;2024-02-23T06:46:36;4.30;99.90
1546;DHT22;766;51.502;9.752;2024-02-23T06:49:05;4.20;99.90
1546;DHT22;766;51.502;9.752;2024-02-23T06:51:35;4.30;99.90
1546;DHT22;766;51.502;9.752;2024-02-23T06:54:05;4.30;99.90
1546;DHT22;766;51.502;9.752;2024-02-23T06:56:35;4.30;99.90
1546;DHT22;766;51.502;9.752;2024-02-23T06:59:07;4.30;99.90
1546;DHT22;766;51.502;9.752;2024-02-23T07:01:36;4.30;99.90
1546;DHT22;766;51.502;9.752;2024-02-23T07:04:07;4.30;99.90
1546;DHT22;766;51.502;9.752;2024-02-23T07:06:37;4.30;99.90
1546;DHT22;766;51.502;9.752;2024-02-23T07:09:06;4.30;99.90
1546;DHT22;766;51.502;9.752;2024-02-23T07:11:35;4.20;99.90
1546;DHT22;766;51.502;9.752;2024-02-23T07:14:04;4.20;99.90
1546;DHT22;766;51.502;9.752;2024-02-23T07:16:33;4.30;99.90
1546;DHT22;766;51.502;9.752;2024-02-23T07:19:02;4.30;99.90
1546;DHT22;766;51.502;9.752;2024-02-23T07:21:30;4.30;99.90
1546;DHT22;766;51.502;9.752;2024-02-23T07:24:01;4.40;99.90
1546;DHT22;766;51.502;9.752;2024-02-23T07:26:29;4.40;99.90
1546;DHT22;766;51.502;9.752;2024-02-23T07:28:59;4.50;99.90
1546;DHT22;766;51.502;9.752;2024-02-23T07:31:28;4.40;99.90
1546;DHT22;766;51.502;9.752;2024-02-23T07:33:57;4.40;99.90
1546;DHT22;766;51.502;9.752;2024-02-23T07:36:25;4.50;99.90
1546;DHT22;766;51.502;9.752;2024-02-23T07:38:54;4.50;99.90
1546;DHT22;766;51.502;9.752;2024-02-23T07:41:24;4.50;99.90
1546;DHT22;766;51.502;9.752;2024-02-23T07:43:56;4.50;99.90
1546;DHT22;766;51.502;9.752;2024-02-23T07:46:26;4.60;99.90
1546;DHT22;766;51.502;9.752;2024-02-23T07:48:55;4.50;99.90
1546;DHT22;766;51.502;9.752;2024-02-23T07:51:24;4.60;99.90
1546;DHT22;766;51.502;9.752;2024-02-23T07:53:53;4.60;99.90
1546;DHT22;766;51.502;9.752;2024-02-23T07:56:23;4.50;99.90
1546;DHT22;766;51.502;9.752;2024-02-23T07:58:55;4.60;99.90
1546;DHT22;766;51.502;9.752;2024-02-23T08:01:24;4.60;99.90
1546;DHT22;766;51.502;9.752;2024-02-23T08:03:53;4.60;99.90
1546;DHT22;766;51.502;9.752;2024-02-23T08:06:22;4.60;99.90
1546;DHT22;766;51.502;9.752;2024-02-23T08:08:54;4.70;99.90
1546;DHT22;766;51.502;9.752;2024-02-23T08:11:26;4.70;99.90
1546;DHT22;766;51.502;9.752;2024-02-23T08:13:55;4.70;99.90
1546;DHT22;766;51.502;9.752;2024-02-23T08:16:30;4.70;99.90
1546;DHT22;766;51.502;9.752;2024-02-23T08:19:02;4.80;99.90
1546;DHT22;766;51.502;9.752;2024-02-23T08:21:31;4.90;99.90
1546;DHT22;766;51.502;9.752;2024-02-23T08:24:00;4.90;99.90
1546;DHT22;766;51.502;9.752;2024-02-23T08:26:32;5.00;99.90
1546;DHT22;766;51.502;9.752;2024-02-23T08:29:01;5.00;99.90
1546;DHT22;766;51.502;9.752;2024-02-23T08:31:30;5.00;99.90
1546;DHT22;766;51.502;9.752;2024-02-23T08:33:59;4.90;99.90
1546;DHT22;766;51.502;9.752;2024-02-23T08:36:27;5.10;99.90
1546;DHT22;766;51.502;9.752;2024-02-23T08:38:56;5.10;99.90
1546;DHT22;766;51.502;9.752;2024-02-23T08:41:25;5.10;99.90
1546;DHT22;766;51.502;9.752;2024-02-23T08:43:55;5.10;99.90
1546;DHT22;766;51.502;9.752;2024-02-23T08:46:24;5.10;99.90
1546;DHT22;766;51.502;9.752;2024-02-23T08:48:53;4.90;99.90
1546;DHT22;766;51.502;9.752;2024-02-23T08:51:22;4.90;99.90
1546;DHT22;766;51.502;9.752;2024-02-23T08:53:50;4.90;99.90
1546;DHT22;766;51.502;9.752;2024-02-23T08:56:19;4.90;99.90
1546;DHT22;766;51.502;9.752;2024-02-23T08:58:48;5.00;99.90
1546;DHT22;766;51.502;9.752;2024-02-23T09:01:23;5.20;99.90
1546;DHT22;766;51.502;9.752;2024-02-23T09:03:58;5.20;99.90
1546;DHT22;766;51.502;9.752;2024-02-23T09:06:29;5.20;99.90
1546;DHT22;766;51.502;9.752;2024-02-23T09:09:03;5.20;99.90
1546;DHT22;766;51.502;9.752;2024-02-23T09:11:32;5.30;99.90
1546;DHT22;766;51.502;9.752;2024-02-23T09:14:01;5.30;99.90
1546;DHT22;766;51.502;9.752;2024-02-23T09:16:31;5.30;99.90
1546;DHT22;766;51.502;9.752;2024-02-23T09:19:00;5.30;99.90
1546;DHT22;766;51.502;9.752;2024-02-23T09:21:29;5.50;99.90
1546;DHT22;766;51.502;9.752;2024-02-23T09:23:58;5.50;99.90
1546;DHT22;766;51.502;9.752;2024-02-23T09:26:27;5.40;99.90
1546;DHT22;766;51.502;9.752;2024-02-23T09:28:55;5.50;99.90
1546;DHT22;766;51.502;9.752;2024-02-23T09:31:24;5.50;99.90
1546;DHT22;766;51.502;9.752;2024-02-23T09:33:55;5.50;99.90
1546;DHT22;766;51.502;9.752;2024-02-23T09:36:24;5.50;99.90
1546;DHT22;766;51.502;9.752;2024-02-23T09:38:53;5.60;99.90
1546;DHT22;766;51.502;9.752;2024-02-23T09:41:23;5.60;99.90
1546;DHT22;766;51.502;9.752;2024-02-23T09:43:52;5.60;99.90
1546;DHT22;766;51.502;9.752;2024-02-23T09:46:22;5.60;99.90
1546;DHT22;766;51.502;9.752;2024-02-23T09:48:52;5.60;99.90
1546;DHT22;766;51.502;9.752;2024-02-23T09:51:25;5.70;99.90
1546;DHT22;766;51.502;9.752;2024-02-23T09:53:54;5.80;99.90
1546;DHT22;766;51.502;9.752;2024-02-23T09:56:27;5.80;99.90
1546;DHT22;766;51.502;9.752;2024-02-23T09:58:59;5.80;99.90
1546;DHT22;766;51.502;9.752;2024-02-23T10:01:29;5.80;99.90
1546;DHT22;766;51.502;9.752;2024-02-23T10:04:00;5.80;99.90
1546;DHT22;766;51.502;9.752;2024-02-23T10:06:32;5.70;99.90
1546;DHT22;766;51.502;9.752;2024-02-23T10:09:01;5.70;99.90
1546;DHT22;766;51.502;9.752;2024-02-23T10:11:33;5.90;99.90
1546;DHT22;766;51.502;9.752;2024-02-23T10:14:02;6.00;99.90
1546;DHT22;766;51.502;9.752;2024-02-23T10:16:30;5.90;99.90
1546;DHT22;766;51.502;9.752;2024-02-23T10:18:59;5.90;99.90
1546;DHT22;766;51.502;9.752;2024-02-23T10:21:28;5.90;99.90
1546;DHT22;766;51.502;9.752;2024-02-23T10:23:59;6.00;99.90
1546;DHT22;766;51.502;9.752;2024-02-23T10:26:28;5.90;99.90
1546;DHT22;766;51.502;9.752;2024-02-23T10:28:56;5.90;99.90
1546;DHT22;766;51.502;9.752;2024-02-23T10:31:27;6.00;99.90
1546;DHT22;766;51.502;9.752;2024-02-23T10:33:57;5.90;99.90
1546;DHT22;766;51.502;9.752;2024-02-23T10:36:30;6.00;99.90
1546;DHT22;766;51.502;9.752;2024-02-23T10:39:02;6.20;99.90
1546;DHT22;766;51.502;9.752;2024-02-23T10:41:35;6.00;99.90
1546;DHT22;766;51.502;9.752;2024-02-23T10:44:05;6.00;99.90
1546;DHT22;766;51.502;9.752;2024-02-23T10:46:34;6.00;99.90
1546;DHT22;766;51.502;9.752;2024-02-23T10:49:03;6.00;99.90
1546;DHT22;766;51.502;9.752;2024-02-23T10:51:34;5.90;99.90
1546;DHT22;766;51.502;9.752;2024-02-23T10:54:06;6.00;99.90
1546;DHT22;766;51.502;9.752;2024-02-23T10:56:35;6.00;99.90
1546;DHT22;766;51.502;9.752;2024-02-23T10:59:04;6.00;99.90
1546;DHT22;766;51.502;9.752;2024-02-23T11:01:35;6.10;99.90
1546;DHT22;766;51.502;9.752;2024-02-23T11:04:07;6.20;99.90
1546;DHT22;766;51.502;9.752;2024-02-23T11:06:37;6.20;99.90
1546;DHT22;766;51.502;9.752;2024-02-23T11:09:08;6.10;99.90
1546;DHT22;766;51.502;9.752;2024-02-23T11:11:37;6.30;99.90
1546;DHT22;766;51.502;9.752;2024-02-23T11:14:08;6.40;99.90
1546;DHT22;766;51.502;9.752;2024-02-23T11:16:39;6.60;99.90
1546;DHT22;766;51.502;9.752;2024-02-23T11:19:09;6.70;99.90
1546;DHT22;766;51.502;9.752;2024-02-23T11:21:39;6.80;99.90
1546;DHT22;766;51.502;9.752;2024-02-23T11:24:15;6.90;99.90
1546;DHT22;766;51.502;9.752;2024-02-23T11:26:44;7.00;99.90
1546;DHT22;766;51.502;9.752;2024-02-23T11:29:16;7.10;99.90
1546;DHT22;766;51.502;9.752;2024-02-23T11:31:47;7.10;99.90
1546;DHT22;766;51.502;9.752;2024-02-23T11:34:22;7.30;99.90
1546;DHT22;766;51.502;9.752;2024-02-23T11:36:52;7.50;99.90
1546;DHT22;766;51.502;9.752;2024-02-23T11:39:23;7.50;99.90
1546;DHT22;766;51.502;9.752;2024-02-23T11:41:55;7.60;99.90
1546;DHT22;766;51.502;9.752;2024-02-23T11:44:26;7.50;99.90
1546;DHT22;766;51.502;9.752;2024-02-23T11:46:55;7.50;99.90
1546;DHT22;766;51.502;9.752;2024-02-23T11:49:28;7.60;99.90
1546;DHT22;766;51.502;9.752;2024-02-23T11:51:57;7.70;99.90
1546;DHT22;766;51.502;9.752;2024-02-23T11:54:34;7.80;99.90
1546;DHT22;766;51.502;9.752;2024-02-23T11:57:03;7.70;99.90
1546;DHT22;766;51.502;9.752;2024-02-23T11:59:32;8.00;99.90
1546;DHT22;766;51.502;9.752;2024-02-23T12:02:03;8.50;99.90
1546;DHT22;766;51.502;9.752;2024-02-23T12:04:32;8.80;99.90
1546;DHT22;766;51.502;9.752;2024-02-23T12:07:01;8.60;99.90
1546;DHT22;766;51.502;9.752;2024-02-23T12:09:32;8.10;99.90
1546;DHT22;766;51.502;9.752;2024-02-23T12:12:01;7.80;99.90
1546;DHT22;766;51.502;9.752;2024-02-23T12:14:30;7.50;99.90
1546;DHT22;766;51.502;9.752;2024-02-23T12:16:58;7.50;99.90
1546;DHT22;766;51.502;9.752;2024-02-23T12:19:30;7.30;99.90
1546;DHT22;766;51.502;9.752;2024-02-23T12:22:00;7.30;99.90
1546;DHT22;766;51.502;9.752;2024-02-23T12:24:29;7.40;99.90
1546;DHT22;766;51.502;9.752;2024-02-23T12:27:00;7.30;99.90
1546;DHT22;766;51.502;9.752;2024-02-23T12:29:28;7.20;99.90
1546;DHT22;766;51.502;9.752;2024-02-23T12:32:06;7.40;99.90
1546;DHT22;766;51.502;9.752;2024-02-23T12:34:36;7.40;99.90
1546;DHT22;766;51.502;9.752;2024-02-23T12:37:05;7.40;99.90
1546;DHT22;766;51.502;9.752;2024-02-23T12:39:34;7.40;99.90
1546;DHT22;766;51.502;9.752;2024-02-23T12:42:04;7.40;99.90
1546;DHT22;766;51.502;9.752;2024-02-23T12:44:33;7.50;99.90
1546;DHT22;766;51.502;9.752;2024-02-23T12:47:02;7.70;99.90
1546;DHT22;766;51.502;9.752;2024-02-23T12:49:31;7.70;99.90
1546;DHT22;766;51.502;9.752;2024-02-23T12:52:00;7.50;99.90
1546;DHT22;766;51.502;9.752;2024-02-23T12:54:29;7.30;99.90
1546;DHT22;766;51.502;9.752;2024-02-23T12:56:58;7.40;99.90
1546;DHT22;766;51.502;9.752;2024-02-23T12:59:28;7.20;99.90
1546;DHT22;766;51.502;9.752;2024-02-23T13:01:57;7.20;99.90
1546;DHT22;766;51.502;9.752;2024-02-23T13:04:26;7.20;99.90
1546;DHT22;766;51.502;9.752;2024-02-23T13:07:32;7.20;99.90
1546;DHT22;766;51.502;9.752;2024-02-23T13:10:20;7.20;99.90
1546;DHT22;766;51.502;9.752;2024-02-23T13:12:52;7.20;99.90
1546;DHT22;766;51.502;9.752;2024-02-23T13:15:23;7.30;99.90
1546;DHT22;766;51.502;9.752;2024-02-23T13:17:53;7.20;99.90
1546;DHT22;766;51.502;9.752;2024-02-23T13:20:27;7.20;99.90
1546;DHT22;766;51.502;9.752;2024-02-23T13:22:56;7.20;99.90
1546;DHT22;766;51.502;9.752;2024-02-23T13:25:25;7.20;99.90
1546;DHT22;766;51.502;9.752;2024-02-23T13:27:54;7.10;99.90
1546;DHT22;766;51.502;9.752;2024-02-23T13:30:25;6.90;99.90
1546;DHT22;766;51.502;9.752;2024-02-23T13:32:56;7.00;99.90
1546;DHT22;766;51.502;9.752;2024-02-23T13:35:25;7.00;99.90
1546;DHT22;766;51.502;9.752;2024-02-23T13:37:54;7.10;99.90
1546;DHT22;766;51.502;9.752;2024-02-23T13:40:25;7.20;99.90
1546;DHT22;766;51.502;9.752;2024-02-23T13:42:55;7.30;99.90
1546;DHT22;766;51.502;9.752;2024-02-23T13:45:26;7.60;99.90
1546;DHT22;766;51.502;9.752;2024-02-23T13:47:57;7.80;99.90
1546;DHT22;766;51.502;9.752;2024-02-23T13:50:28;7.80;99.90
1546;DHT22;766;51.502;9.752;2024-02-23T13:52:58;7.80;99.90
1546;DHT22;766;51.502;9.752;2024-02-23T13:55:29;7.60;99.90
1546;DHT22;766;51.502;9.752;2024-02-23T13:58:01;7.50;99.90
1546;DHT22;766;51.502;9.752;2024-02-23T14:00:31;7.30;99.90
1546;DHT22;766;51.502;9.752;2024-02-23T14:03:00;7.40;99.90
1546;DHT22;766;51.502;9.752;2024-02-23T14:05:30;7.50;99.90
1546;DHT22;766;51.502;9.752;2024-02-23T14:07:59;7.40;99.90
1546;DHT22;766;51.502;9.752;2024-02-23T14:10:30;7.40;99.90
1546;DHT22;766;51.502;9.752;2024-02-23T14:12:59;7.40;99.90
1546;DHT22;766;51.502;9.752;2024-02-23T14:15:28;7.20;99.90
1546;DHT22;766;51.502;9.752;2024-02-23T14:17:58;7.10;99.90
1546;DHT22;766;51.502;9.752;2024-02-23T14:20:27;7.10;99.90
1546;DHT22;766;51.502;9.752;2024-02-23T14:22:56;7.20;99.90
1546;DHT22;766;51.502;9.752;2024-02-23T14:29:14;7.40;99.90
1546;DHT22;766;51.502;9.752;2024-02-23T14:31:44;7.40;99.90
1546;DHT22;766;51.502;9.752;2024-02-23T14:34:14;7.30;99.90
1546;DHT22;766;51.502;9.752;2024-02-23T14:36:42;7.40;99.90
1546;DHT22;766;51.502;9.752;2024-02-23T14:39:11;7.40;99.90
1546;DHT22;766;51.502;9.752;2024-02-23T14:41:39;7.20;99.90
1546;DHT22;766;51.502;9.752;2024-02-23T14:44:08;7.20;99.90
1546;DHT22;766;51.502;9.752;2024-02-23T14:46:36;7.20;99.90
1546;DHT22;766;51.502;9.752;2024-02-23T14:49:08;7.20;99.90
1546;DHT22;766;51.502;9.752;2024-02-23T14:51:38;7.00;99.90
1546;DHT22;766;51.502;9.752;2024-02-23T14:54:09;6.90;99.90
1546;DHT22;766;51.502;9.752;2024-02-23T14:56:41;6.80;99.90
1546;DHT22;766;51.502;9.752;2024-02-23T14:59:09;6.80;99.90
1546;DHT22;766;51.502;9.752;2024-02-23T15:01:38;6.70;99.90
1546;DHT22;766;51.502;9.752;2024-02-23T15:04:08;6.80;99.90
1546;DHT22;766;51.502;9.752;2024-02-23T15:06:38;6.80;99.90
1546;DHT22;766;51.502;9.752;2024-02-23T15:09:06;6.80;99.90
1546;DHT22;766;51.502;9.752;2024-02-23T15:11:35;6.80;99.90
1546;DHT22;766;51.502;9.752;2024-02-23T15:14:03;6.70;99.90
1546;DHT22;766;51.502;9.752;2024-02-23T15:16:31;6.80;99.90
1546;DHT22;766;51.502;9.752;2024-02-23T15:19:00;6.70;99.90
1546;DHT22;766;51.502;9.752;2024-02-23T15:21:29;6.70;99.90
1546;DHT22;766;51.502;9.752;2024-02-23T15:23:58;6.60;99.90
1546;DHT22;766;51.502;9.752;2024-02-23T15:26:28;6.70;99.90
1546;DHT22;766;51.502;9.752;2024-02-23T15:28:57;6.70;99.90
1546;DHT22;766;51.502;9.752;2024-02-23T15:31:26;6.60;99.90
1546;DHT22;766;51.502;9.752;2024-02-23T15:33:54;6.60;99.90
1546;DHT22;766;51.502;9.752;2024-02-23T15:36:24;6.70;99.90
1546;DHT22;766;51.502;9.752;2024-02-23T15:38:52;6.70;99.90
1546;DHT22;766;51.502;9.752;2024-02-23T15:41:32;6.80;99.90
1546;DHT22;766;51.502;9.752;2024-02-23T15:44:01;6.80;99.90
1546;DHT22;766;51.502;9.752;2024-02-23T15:46:30;6.80;99.90
1546;DHT22;766;51.502;9.752;2024-02-23T15:48:58;6.70;99.90
1546;DHT22;766;51.502;9.752;2024-02-23T15:51:33;6.80;99.90
1546;DHT22;766;51.502;9.752;2024-02-23T15:54:18;6.80;99.90
1546;DHT22;766;51.502;9.752;2024-02-23T15:56:50;6.80;99.90
1546;DHT22;766;51.502;9.752;2024-02-23T15:59:18;6.90;99.90
1546;DHT22;766;51.502;9.752;2024-02-23T16:01:46;6.90;99.90
1546;DHT22;766;51.502;9.752;2024-02-23T16:04:15;6.90;99.90
1546;DHT22;766;51.502;9.752;2024-02-23T16:06:43;6.90;99.90
1546;DHT22;766;51.502;9.752;2024-02-23T16:09:11;6.90;99.90
1546;DHT22;766;51.502;9.752;2024-02-23T16:11:45;6.90;99.90
1546;DHT22;766;51.502;9.752;2024-02-23T16:14:19;6.90;99.90
1546;DHT22;766;51.502;9.752;2024-02-23T16:16:47;6.90;99.90
1546;DHT22;766;51.502;9.752;2024-02-23T16:19:15;6.80;99.90
1546;DHT22;766;51.502;9.752;2024-02-23T16:21:47;6.80;99.90
1546;DHT22;766;51.502;9.752;2024-02-23T16:24:16;6.70;99.90
1546;DHT22;766;51.502;9.752;2024-02-23T16:26:44;6.70;99.90
1546;DHT22;766;51.502;9.752;2024-02-23T16:29:12;6.70;99.90
1546;DHT22;766;51.502;9.752;2024-02-23T16:31:43;6.70;99.90
1546;DHT22;766;51.502;9.752;2024-02-23T16:34:14;6.60;99.90
1546;DHT22;766;51.502;9.752;2024-02-23T16:36:42;6.60;99.90
1546;DHT22;766;51.502;9.752;2024-02-23T16:39:14;6.60;99.90
1546;DHT22;766;51.502;9.752;2024-02-23T16:41:45;6.60;99.90
1546;DHT22;766;51.502;9.752;2024-02-23T16:44:13;6.60;99.90
1546;DHT22;766;51.502;9.752;2024-02-23T16:46:47;6.60;99.90
1546;DHT22;766;51.502;9.752;2024-02-23T16:49:15;6.50;99.90
1546;DHT22;766;51.502;9.752;2024-02-23T16:51:44;6.50;99.90
1546;DHT22;766;51.502;9.752;2024-02-23T16:54:12;6.50;99.90
1546;DHT22;766;51.502;9.752;2024-02-23T16:56:40;6.60;99.90